sensor_id;sensor_type;location;lat;lon;timestamp;temperature;humidity
76168;DHT22;64927;48.214;16.378;2023-10-09T00:00:05;13.80;63.70
76168;DHT22;64927;48.214;16.378;2023-10-09T00:02:51;13.80;63.90
76168;DHT22;64927;48.214;16.378;2023-10-09T00:05:19;13.90;63.80
76168;DHT22;64927;48.214;16.378;2023-10-09T00:07:50;13.90;63.60
76168;DHT22;64927;48.214;16.378;2023-10-09T00:10:21;13.80;63.70
76168;DHT22;64927;48.214;16.378;2023-10-09T00:12:47;13.90;63.70
76168;DHT22;64927;48.214;16.378;2023-10-09T00:15:14;13.90;63.40
76168;DHT22;64927;48.214;16.378;2023-10-09T00:17:43;14.00;63.30
76168;DHT22;64927;48.214;16.378;2023-10-09T00:20:13;14.00;63.20
76168;DHT22;64927;48.214;16.378;2023-10-09T00:22:47;14.00;64.10
76168;DHT22;64927;48.214;16.378;2023-10-09T00:25:12;14.00;63.40
76168;DHT22;64927;48.214;16.378;2023-10-09T00:27:47;14.00;63.30
76168;DHT22;64927;48.214;16.378;2023-10-09T00:30:15;14.00;63.40
76168;DHT22;64927;48.214;16.378;2023-10-09T00:32:47;14.10;63.00
76168;DHT22;64927;48.214;16.378;2023-10-09T00:35:26;14.00;63.70
76168;DHT22;64927;48.214;16.378;2023-10-09T00:38:06;14.10;63.40
76168;DHT22;64927;48.214;16.378;2023-10-09T00:40:47;14.10;63.30
76168;DHT22;64927;48.214;16.378;2023-10-09T00:43:28;14.20;64.00
76168;DHT22;64927;48.214;16.378;2023-10-09T00:45:54;14.20;63.10
76168;DHT22;64927;48.214;16.378;2023-10-09T00:48:19;14.10;63.40
76168;DHT22;64927;48.214;16.378;2023-10-09T00:50:55;14.10;63.60
76168;DHT22;64927;48.214;16.378;2023-10-09T00:53:25;14.10;63.50
76168;DHT22;64927;48.214;16.378;2023-10-09T00:56:01;14.00;63.70
76168;DHT22;64927;48.214;16.378;2023-10-09T00:58:47;14.10;63.60
76168;DHT22;64927;48.214;16.378;2023-10-09T01:01:39;14.00;63.50
76168;DHT22;64927;48.214;16.378;2023-10-09T01:04:11;13.90;63.80
76168;DHT22;64927;48.214;16.378;2023-10-09T01:06:45;13.80;64.20
76168;DHT22;64927;48.214;16.378;2023-10-09T01:09:13;13.80;64.30
76168;DHT22;64927;48.214;16.378;2023-10-09T01:11:40;13.80;64.20
76168;DHT22;64927;48.214;16.378;2023-10-09T01:14:16;13.80;64.30
76168;DHT22;64927;48.214;16.378;2023-10-09T01:16:42;13.70;64.20
76168;DHT22;64927;48.214;16.378;2023-10-09T01:19:08;13.90;64.20
76168;DHT22;64927;48.214;16.378;2023-10-09T01:21:54;13.80;64.60
76168;DHT22;64927;48.214;16.378;2023-10-09T01:24:20;13.80;65.00
76168;DHT22;64927;48.214;16.378;2023-10-09T01:26:49;13.70;65.60
76168;DHT22;64927;48.214;16.378;2023-10-09T01:29:23;13.80;65.50
76168;DHT22;64927;48.214;16.378;2023-10-09T01:31:54;13.70;66.20
76168;DHT22;64927;48.214;16.378;2023-10-09T01:34:28;13.80;66.10
76168;DHT22;64927;48.214;16.378;2023-10-09T01:37:21;13.80;66.00
76168;DHT22;64927;48.214;16.378;2023-10-09T01:39:48;13.90;66.00
76168;DHT22;64927;48.214;16.378;2023-10-09T01:42:15;14.00;66.00
76168;DHT22;64927;48.214;16.378;2023-10-09T01:45:02;14.10;65.80
76168;DHT22;64927;48.214;16.378;2023-10-09T01:47:51;14.00;66.10
76168;DHT22;64927;48.214;16.378;2023-10-09T01:50:18;14.00;66.40
76168;DHT22;64927;48.214;16.378;2023-10-09T01:52:47;13.90;66.60
76168;DHT22;64927;48.214;16.378;2023-10-09T01:55:13;13.90;66.80
76168;DHT22;64927;48.214;16.378;2023-10-09T01:58:13;14.00;66.40
76168;DHT22;64927;48.214;16.378;2023-10-09T02:00:50;13.90;66.50
76168;DHT22;64927;48.214;16.378;2023-10-09T02:03:22;13.90;67.80
76168;DHT22;64927;48.214;16.378;2023-10-09T02:05:55;13.80;67.10
76168;DHT22;64927;48.214;16.378;2023-10-09T02:08:28;14.00;66.90
76168;DHT22;64927;48.214;16.378;2023-10-09T02:10:56;14.00;66.50
76168;DHT22;64927;48.214;16.378;2023-10-09T02:13:24;14.10;66.40
76168;DHT22;64927;48.214;16.378;2023-10-09T02:15:56;14.20;65.60
76168;DHT22;64927;48.214;16.378;2023-10-09T02:18:41;14.30;64.90
76168;DHT22;64927;48.214;16.378;2023-10-09T02:21:19;14.30;64.40
76168;DHT22;64927;48.214;16.378;2023-10-09T02:23:58;14.30;64.40
76168;DHT22;64927;48.214;16.378;2023-10-09T02:26:28;14.40;64.20
76168;DHT22;64927;48.214;16.378;2023-10-09T02:29:05;14.40;63.90
76168;DHT22;64927;48.214;16.378;2023-10-09T02:31:40;14.50;63.60
76168;DHT22;64927;48.214;16.378;2023-10-09T02:34:06;14.50;62.90
76168;DHT22;64927;48.214;16.378;2023-10-09T02:36:39;14.50;63.10
76168;DHT22;64927;48.214;16.378;2023-10-09T02:39:11;14.60;63.00
76168;DHT22;64927;48.214;16.378;2023-10-09T02:41:56;14.70;62.40
76168;DHT22;64927;48.214;16.378;2023-10-09T02:44:45;14.70;61.80
76168;DHT22;64927;48.214;16.378;2023-10-09T02:47:21;14.70;62.00
76168;DHT22;64927;48.214;16.378;2023-10-09T02:49:50;14.70;61.00
76168;DHT22;64927;48.214;16.378;2023-10-09T02:52:17;14.70;61.20
76168;DHT22;64927;48.214;16.378;2023-10-09T02:54:51;14.60;61.40
76168;DHT22;64927;48.214;16.378;2023-10-09T02:57:26;14.50;61.80
76168;DHT22;64927;48.214;16.378;2023-10-09T02:59:54;14.50;62.90
76168;DHT22;64927;48.214;16.378;2023-10-09T03:02:19;14.40;62.40
76168;DHT22;64927;48.214;16.378;2023-10-09T03:04:49;14.30;63.00
76168;DHT22;64927;48.214;16.378;2023-10-09T03:07:15;14.20;63.20
76168;DHT22;64927;48.214;16.378;2023-10-09T03:09:40;14.30;63.20
76168;DHT22;64927;48.214;16.378;2023-10-09T03:12:06;14.30;63.30
76168;DHT22;64927;48.214;16.378;2023-10-09T03:14:39;14.30;63.10
76168;DHT22;64927;48.214;16.378;2023-10-09T03:17:09;14.30;63.20
76168;DHT22;64927;48.214;16.378;2023-10-09T03:19:37;14.30;63.00
76168;DHT22;64927;48.214;16.378;2023-10-09T03:22:08;14.30;63.10
76168;DHT22;64927;48.214;16.378;2023-10-09T03:24:36;14.30;63.30
76168;DHT22;64927;48.214;16.378;2023-10-09T03:27:02;14.20;63.80
76168;DHT22;64927;48.214;16.378;2023-10-09T03:29:28;14.20;64.00
76168;DHT22;64927;48.214;16.378;2023-10-09T03:31:54;14.20;64.40
76168;DHT22;64927;48.214;16.378;2023-10-09T03:34:22;14.20;64.40
76168;DHT22;64927;48.214;16.378;2023-10-09T03:36:49;14.10;64.90
76168;DHT22;64927;48.214;16.378;2023-10-09T03:39:25;14.00;65.50
76168;DHT22;64927;48.214;16.378;2023-10-09T03:41:59;14.00;65.70
76168;DHT22;64927;48.214;16.378;2023-10-09T03:44:25;14.10;65.70
76168;DHT22;64927;48.214;16.378;2023-10-09T03:46:56;14.20;65.60
76168;DHT22;64927;48.214;16.378;2023-10-09T03:49:22;14.20;65.50
76168;DHT22;64927;48.214;16.378;2023-10-09T03:51:51;14.20;65.60
76168;DHT22;64927;48.214;16.378;2023-10-09T03:54:17;14.30;65.20
76168;DHT22;64927;48.214;16.378;2023-10-09T03:56:46;14.30;65.30
76168;DHT22;64927;48.214;16.378;2023-10-09T03:59:18;14.30;65.40
76168;DHT22;64927;48.214;16.378;2023-10-09T04:01:50;14.30;64.90
76168;DHT22;64927;48.214;16.378;2023-10-09T04:04:18;14.20;64.60
76168;DHT22;64927;48.214;16.378;2023-10-09T04:06:50;14.10;65.30
76168;DHT22;64927;48.214;16.378;2023-10-09T04:09:19;14.10;65.50
76168;DHT22;64927;48.214;16.378;2023-10-09T04:11:54;14.00;65.60
76168;DHT22;64927;48.214;16.378;2023-10-09T04:14:35;13.90;66.00
76168;DHT22;64927;48.214;16.378;2023-10-09T04:17:03;13.90;66.30
76168;DHT22;64927;48.214;16.378;2023-10-09T04:19:52;14.00;66.20
76168;DHT22;64927;48.214;16.378;2023-10-09T04:22:38;14.00;65.80
76168;DHT22;64927;48.214;16.378;2023-10-09T04:25:20;14.00;65.70
76168;DHT22;64927;48.214;16.378;2023-10-09T04:27:54;14.00;66.00
76168;DHT22;64927;48.214;16.378;2023-10-09T04:30:37;14.10;65.70
76168;DHT22;64927;48.214;16.378;2023-10-09T04:33:06;14.10;65.70
76168;DHT22;64927;48.214;16.378;2023-10-09T04:35:37;14.10;65.40
76168;DHT22;64927;48.214;16.378;2023-10-09T04:38:03;14.10;65.60
76168;DHT22;64927;48.214;16.378;2023-10-09T04:40:32;14.10;65.40
76168;DHT22;64927;48.214;16.378;2023-10-09T04:43:13;14.10;65.30
76168;DHT22;64927;48.214;16.378;2023-10-09T04:45:47;14.00;65.00
76168;DHT22;64927;48.214;16.378;2023-10-09T04:48:31;14.00;65.20
76168;DHT22;64927;48.214;16.378;2023-10-09T04:51:06;13.90;65.30
76168;DHT22;64927;48.214;16.378;2023-10-09T04:53:48;13.90;65.70
76168;DHT22;64927;48.214;16.378;2023-10-09T04:56:25;13.80;65.80
76168;DHT22;64927;48.214;16.378;2023-10-09T04:58:59;13.70;65.80
76168;DHT22;64927;48.214;16.378;2023-10-09T05:01:33;13.60;66.20
76168;DHT22;64927;48.214;16.378;2023-10-09T05:04:03;13.50;66.30
76168;DHT22;64927;48.214;16.378;2023-10-09T05:06:49;13.60;66.30
76168;DHT22;64927;48.214;16.378;2023-10-09T05:09:23;13.50;66.50
76168;DHT22;64927;48.214;16.378;2023-10-09T05:11:52;13.60;66.00
76168;DHT22;64927;48.214;16.378;2023-10-09T05:14:18;13.50;66.10
76168;DHT22;64927;48.214;16.378;2023-10-09T05:16:52;13.50;66.40
76168;DHT22;64927;48.214;16.378;2023-10-09T05:19:24;13.50;66.90
76168;DHT22;64927;48.214;16.378;2023-10-09T05:22:11;13.50;65.90
76168;DHT22;64927;48.214;16.378;2023-10-09T05:24:56;13.50;66.00
76168;DHT22;64927;48.214;16.378;2023-10-09T05:27:26;13.60;66.00
76168;DHT22;64927;48.214;16.378;2023-10-09T05:30:11;13.60;65.50
76168;DHT22;64927;48.214;16.378;2023-10-09T05:32:53;13.50;65.10
76168;DHT22;64927;48.214;16.378;2023-10-09T05:35:24;13.60;65.40
76168;DHT22;64927;48.214;16.378;2023-10-09T05:38:09;13.60;65.20
76168;DHT22;64927;48.214;16.378;2023-10-09T05:40:51;13.60;64.90
76168;DHT22;64927;48.214;16.378;2023-10-09T05:43:30;13.70;64.80
76168;DHT22;64927;48.214;16.378;2023-10-09T05:46:27;13.70;64.20
76168;DHT22;64927;48.214;16.378;2023-10-09T05:49:01;13.70;63.90
76168;DHT22;64927;48.214;16.378;2023-10-09T05:51:35;13.80;63.60
76168;DHT22;64927;48.214;16.378;2023-10-09T05:54:07;13.80;63.40
76168;DHT22;64927;48.214;16.378;2023-10-09T05:56:51;13.80;63.60
76168;DHT22;64927;48.214;16.378;2023-10-09T05:59:54;13.90;62.80
76168;DHT22;64927;48.214;16.378;2023-10-09T06:02:38;14.00;62.80
76168;DHT22;64927;48.214;16.378;2023-10-09T06:05:30;14.10;62.30
76168;DHT22;64927;48.214;16.378;2023-10-09T06:08:16;14.20;62.00
76168;DHT22;64927;48.214;16.378;2023-10-09T06:10:50;14.30;60.80
76168;DHT22;64927;48.214;16.378;2023-10-09T06:13:33;14.30;62.20
76168;DHT22;64927;48.214;16.378;2023-10-09T06:16:12;14.40;61.80
76168;DHT22;64927;48.214;16.378;2023-10-09T06:19:13;14.50;61.00
76168;DHT22;64927;48.214;16.378;2023-10-09T06:21:45;14.70;61.30
76168;DHT22;64927;48.214;16.378;2023-10-09T06:24:30;14.70;59.40
76168;DHT22;64927;48.214;16.378;2023-10-09T06:27:07;14.80;59.50
76168;DHT22;64927;48.214;16.378;2023-10-09T06:29:32;14.90;60.00
76168;DHT22;64927;48.214;16.378;2023-10-09T06:32:07;15.00;58.40
76168;DHT22;64927;48.214;16.378;2023-10-09T06:34:46;15.10;57.90
76168;DHT22;64927;48.214;16.378;2023-10-09T06:37:15;15.00;57.80
76168;DHT22;64927;48.214;16.378;2023-10-09T06:39:43;15.00;58.30
76168;DHT22;64927;48.214;16.378;2023-10-09T06:42:16;15.10;58.00
76168;DHT22;64927;48.214;16.378;2023-10-09T06:45:10;15.20;57.00
76168;DHT22;64927;48.214;16.378;2023-10-09T06:47:41;15.10;57.60
76168;DHT22;64927;48.214;16.378;2023-10-09T06:50:11;15.20;57.30
76168;DHT22;64927;48.214;16.378;2023-10-09T06:52:46;15.30;56.90
76168;DHT22;64927;48.214;16.378;2023-10-09T06:55:36;15.30;57.00
76168;DHT22;64927;48.214;16.378;2023-10-09T06:58:23;15.40;57.20
76168;DHT22;64927;48.214;16.378;2023-10-09T07:00:50;15.60;56.60
76168;DHT22;64927;48.214;16.378;2023-10-09T07:03:35;15.70;57.10
76168;DHT22;64927;48.214;16.378;2023-10-09T07:06:08;15.70;55.50
76168;DHT22;64927;48.214;16.378;2023-10-09T07:08:56;15.70;56.20
76168;DHT22;64927;48.214;16.378;2023-10-09T07:11:37;15.70;55.90
76168;DHT22;64927;48.214;16.378;2023-10-09T07:14:10;15.60;55.80
76168;DHT22;64927;48.214;16.378;2023-10-09T07:17:06;15.50;56.00
76168;DHT22;64927;48.214;16.378;2023-10-09T07:19:51;15.50;56.60
76168;DHT22;64927;48.214;16.378;2023-10-09T07:22:23;15.60;56.60
76168;DHT22;64927;48.214;16.378;2023-10-09T07:24:56;15.60;56.40
76168;DHT22;64927;48.214;16.378;2023-10-09T07:27:31;15.60;56.90
76168;DHT22;64927;48.214;16.378;2023-10-09T07:30:12;15.60;56.70
76168;DHT22;64927;48.214;16.378;2023-10-09T07:32:56;15.80;56.20
76168;DHT22;64927;48.214;16.378;2023-10-09T07:35:31;15.90;56.30
76168;DHT22;64927;48.214;16.378;2023-10-09T07:38:22;16.20;55.60
76168;DHT22;64927;48.214;16.378;2023-10-09T07:40:51;16.40;55.40
76168;DHT22;64927;48.214;16.378;2023-10-09T07:43:36;16.50;54.50
76168;DHT22;64927;48.214;16.378;2023-10-09T07:46:09;16.60;54.00
76168;DHT22;64927;48.214;16.378;2023-10-09T07:49:05;16.50;53.90
76168;DHT22;64927;48.214;16.378;2023-10-09T07:51:46;16.40;54.90
76168;DHT22;64927;48.214;16.378;2023-10-09T07:54:15;16.60;54.60
76168;DHT22;64927;48.214;16.378;2023-10-09T07:56:41;16.70;54.40
76168;DHT22;64927;48.214;16.378;2023-10-09T07:59:11;16.80;53.70
76168;DHT22;64927;48.214;16.378;2023-10-09T08:01:45;16.50;53.90
76168;DHT22;64927;48.214;16.378;2023-10-09T08:04:25;16.70;54.20
76168;DHT22;64927;48.214;16.378;2023-10-09T08:09:32;17.10;54.30
76168;DHT22;64927;48.214;16.378;2023-10-09T08:12:17;17.20;53.60
76168;DHT22;64927;48.214;16.378;2023-10-09T08:15:05;17.40;53.00
76168;DHT22;64927;48.214;16.378;2023-10-09T08:17:55;17.50;52.10
76168;DHT22;64927;48.214;16.378;2023-10-09T08:20:37;17.40;52.60
76168;DHT22;64927;48.214;16.378;2023-10-09T08:23:22;17.50;52.40
76168;DHT22;64927;48.214;16.378;2023-10-09T08:25:59;17.70;52.20
76168;DHT22;64927;48.214;16.378;2023-10-09T08:28:41;18.00;51.70
76168;DHT22;64927;48.214;16.378;2023-10-09T08:31:15;18.30;51.20
76168;DHT22;64927;48.214;16.378;2023-10-09T08:34:05;18.10;50.50
76168;DHT22;64927;48.214;16.378;2023-10-09T08:36:35;18.00;51.50
76168;DHT22;64927;48.214;16.378;2023-10-09T08:39:04;18.10;51.50
76168;DHT22;64927;48.214;16.378;2023-10-09T08:41:59;18.40;51.50
76168;DHT22;64927;48.214;16.378;2023-10-09T08:44:27;18.40;50.70
76168;DHT22;64927;48.214;16.378;2023-10-09T08:46:55;18.50;50.80
76168;DHT22;64927;48.214;16.378;2023-10-09T08:49:25;18.60;49.80
76168;DHT22;64927;48.214;16.378;2023-10-09T08:51:54;18.80;49.30
76168;DHT22;64927;48.214;16.378;2023-10-09T08:54:20;18.80;49.90
76168;DHT22;64927;48.214;16.378;2023-10-09T08:56:46;19.00;49.80
76168;DHT22;64927;48.214;16.378;2023-10-09T08:59:16;19.10;49.20
76168;DHT22;64927;48.214;16.378;2023-10-09T09:01:48;19.30;48.80
76168;DHT22;64927;48.214;16.378;2023-10-09T09:04:53;19.20;48.80
76168;DHT22;64927;48.214;16.378;2023-10-09T09:07:25;19.10;49.20
76168;DHT22;64927;48.214;16.378;2023-10-09T09:09:58;19.10;50.10
76168;DHT22;64927;48.214;16.378;2023-10-09T09:12:29;19.20;49.50
76168;DHT22;64927;48.214;16.378;2023-10-09T09:15:03;19.10;48.50
76168;DHT22;64927;48.214;16.378;2023-10-09T09:17:32;19.20;49.80
76168;DHT22;64927;48.214;16.378;2023-10-09T09:20:24;19.50;50.20
76168;DHT22;64927;48.214;16.378;2023-10-09T09:22:57;19.60;48.20
76168;DHT22;64927;48.214;16.378;2023-10-09T09:25:24;19.60;48.80
76168;DHT22;64927;48.214;16.378;2023-10-09T09:28:04;19.80;48.60
76168;DHT22;64927;48.214;16.378;2023-10-09T09:30:37;20.10;47.70
76168;DHT22;64927;48.214;16.378;2023-10-09T09:33:23;20.30;48.20
76168;DHT22;64927;48.214;16.378;2023-10-09T09:36:09;20.30;46.80
76168;DHT22;64927;48.214;16.378;2023-10-09T09:38:37;20.30;47.10
76168;DHT22;64927;48.214;16.378;2023-10-09T09:41:19;20.40;47.00
76168;DHT22;64927;48.214;16.378;2023-10-09T09:43:56;20.40;47.00
76168;DHT22;64927;48.214;16.378;2023-10-09T09:46:24;20.30;47.70
76168;DHT22;64927;48.214;16.378;2023-10-09T09:49:04;20.40;47.10
76168;DHT22;64927;48.214;16.378;2023-10-09T09:51:42;20.50;47.10
76168;DHT22;64927;48.214;16.378;2023-10-09T09:54:14;20.60;46.60
76168;DHT22;64927;48.214;16.378;2023-10-09T09:56:48;20.40;46.70
76168;DHT22;64927;48.214;16.378;2023-10-09T09:59:17;20.60;46.30
76168;DHT22;64927;48.214;16.378;2023-10-09T10:02:04;20.60;46.20
76168;DHT22;64927;48.214;16.378;2023-10-09T10:04:35;20.60;46.30
76168;DHT22;64927;48.214;16.378;2023-10-09T10:07:02;20.70;46.50
76168;DHT22;64927;48.214;16.378;2023-10-09T10:09:38;20.70;47.30
76168;DHT22;64927;48.214;16.378;2023-10-09T10:12:07;20.80;46.40
76168;DHT22;64927;48.214;16.378;2023-10-09T10:14:56;20.80;47.40
76168;DHT22;64927;48.214;16.378;2023-10-09T10:17:25;20.80;47.70
76168;DHT22;64927;48.214;16.378;2023-10-09T10:20:07;20.90;47.20
76168;DHT22;64927;48.214;16.378;2023-10-09T10:22:45;20.90;47.40
76168;DHT22;64927;48.214;16.378;2023-10-09T10:25:32;20.90;47.20
76168;DHT22;64927;48.214;16.378;2023-10-09T10:28:20;21.00;46.80
76168;DHT22;64927;48.214;16.378;2023-10-09T10:31:06;21.10;47.10
76168;DHT22;64927;48.214;16.378;2023-10-09T10:36:22;21.00;46.60
76168;DHT22;64927;48.214;16.378;2023-10-09T10:39:02;21.00;46.30
76168;DHT22;64927;48.214;16.378;2023-10-09T10:41:56;20.80;47.50
76168;DHT22;64927;48.214;16.378;2023-10-09T10:44:33;20.50;48.00
76168;DHT22;64927;48.214;16.378;2023-10-09T10:47:03;20.60;47.30
76168;DHT22;64927;48.214;16.378;2023-10-09T10:49:29;20.50;48.20
76168;DHT22;64927;48.214;16.378;2023-10-09T10:52:06;20.50;48.40
76168;DHT22;64927;48.214;16.378;2023-10-09T10:54:43;20.50;48.50
76168;DHT22;64927;48.214;16.378;2023-10-09T10:57:19;20.50;48.80
76168;DHT22;64927;48.214;16.378;2023-10-09T10:59:45;20.50;50.00
76168;DHT22;64927;48.214;16.378;2023-10-09T11:02:12;20.60;50.60
76168;DHT22;64927;48.214;16.378;2023-10-09T11:04:37;20.40;51.00
76168;DHT22;64927;48.214;16.378;2023-10-09T11:07:10;20.30;51.30
76168;DHT22;64927;48.214;16.378;2023-10-09T11:09:57;20.30;52.90
76168;DHT22;64927;48.214;16.378;2023-10-09T11:12:27;20.00;54.20
76168;DHT22;64927;48.214;16.378;2023-10-09T11:15:07;20.10;55.50
76168;DHT22;64927;48.214;16.378;2023-10-09T11:18:07;20.10;55.60
76168;DHT22;64927;48.214;16.378;2023-10-09T11:20:34;20.10;55.00
76168;DHT22;64927;48.214;16.378;2023-10-09T11:23:02;20.20;55.40
76168;DHT22;64927;48.214;16.378;2023-10-09T11:25:42;20.00;55.00
76168;DHT22;64927;48.214;16.378;2023-10-09T11:31:10;20.10;56.20
76168;DHT22;64927;48.214;16.378;2023-10-09T11:33:51;20.00;55.80
76168;DHT22;64927;48.214;16.378;2023-10-09T11:36:20;20.10;56.80
76168;DHT22;64927;48.214;16.378;2023-10-09T11:39:00;20.00;55.80
76168;DHT22;64927;48.214;16.378;2023-10-09T11:41:40;20.00;57.70
76168;DHT22;64927;48.214;16.378;2023-10-09T11:44:07;20.00;58.90
76168;DHT22;64927;48.214;16.378;2023-10-09T11:47:00;20.00;58.90
76168;DHT22;64927;48.214;16.378;2023-10-09T11:49:58;20.00;59.20
76168;DHT22;64927;48.214;16.378;2023-10-09T11:52:32;19.80;59.60
76168;DHT22;64927;48.214;16.378;2023-10-09T11:55:03;19.70;59.40
76168;DHT22;64927;48.214;16.378;2023-10-09T11:57:34;19.50;60.10
76168;DHT22;64927;48.214;16.378;2023-10-09T12:00:02;19.50;61.40
76168;DHT22;64927;48.214;16.378;2023-10-09T12:02:36;19.40;61.80
76168;DHT22;64927;48.214;16.378;2023-10-09T12:05:10;19.30;62.10
76168;DHT22;64927;48.214;16.378;2023-10-09T12:07:43;19.30;62.10
76168;DHT22;64927;48.214;16.378;2023-10-09T12:10:09;19.30;62.40
76168;DHT22;64927;48.214;16.378;2023-10-09T12:12:36;19.40;62.20
76168;DHT22;64927;48.214;16.378;2023-10-09T12:15:03;19.40;62.40
76168;DHT22;64927;48.214;16.378;2023-10-09T12:17:32;19.30;63.10
76168;DHT22;64927;48.214;16.378;2023-10-09T12:19:58;19.30;62.40
76168;DHT22;64927;48.214;16.378;2023-10-09T12:22:24;19.20;62.80
76168;DHT22;64927;48.214;16.378;2023-10-09T12:24:52;19.30;62.30
76168;DHT22;64927;48.214;16.378;2023-10-09T12:27:19;19.30;61.30
76168;DHT22;64927;48.214;16.378;2023-10-09T12:29:47;19.40;61.60
76168;DHT22;64927;48.214;16.378;2023-10-09T12:32:13;19.50;61.90
76168;DHT22;64927;48.214;16.378;2023-10-09T12:34:44;19.40;60.90
76168;DHT22;64927;48.214;16.378;2023-10-09T12:37:11;19.30;61.10
76168;DHT22;64927;48.214;16.378;2023-10-09T12:39:37;19.20;62.90
76168;DHT22;64927;48.214;16.378;2023-10-09T12:42:06;19.00;62.80
76168;DHT22;64927;48.214;16.378;2023-10-09T12:44:38;18.80;64.20
76168;DHT22;64927;48.214;16.378;2023-10-09T12:47:08;18.50;65.50
76168;DHT22;64927;48.214;16.378;2023-10-09T12:49:37;18.30;66.50
76168;DHT22;64927;48.214;16.378;2023-10-09T12:52:12;17.90;67.10
76168;DHT22;64927;48.214;16.378;2023-10-09T12:54:45;17.70;68.60
76168;DHT22;64927;48.214;16.378;2023-10-09T12:57:14;17.30;70.50
76168;DHT22;64927;48.214;16.378;2023-10-09T12:59:42;17.10;72.40
76168;DHT22;64927;48.214;16.378;2023-10-09T13:02:14;17.10;72.80
76168;DHT22;64927;48.214;16.378;2023-10-09T13:04:57;17.10;73.40
76168;DHT22;64927;48.214;16.378;2023-10-09T13:07:25;17.30;72.60
76168;DHT22;64927;48.214;16.378;2023-10-09T13:09:51;17.30;72.70
76168;DHT22;64927;48.214;16.378;2023-10-09T13:12:35;17.30;73.10
76168;DHT22;64927;48.214;16.378;2023-10-09T13:15:08;17.30;74.20
76168;DHT22;64927;48.214;16.378;2023-10-09T13:17:39;17.20;73.90
76168;DHT22;64927;48.214;16.378;2023-10-09T13:20:08;17.20;74.10
76168;DHT22;64927;48.214;16.378;2023-10-09T13:22:40;17.30;74.40
76168;DHT22;64927;48.214;16.378;2023-10-09T13:25:10;17.40;74.90
76168;DHT22;64927;48.214;16.378;2023-10-09T13:27:43;17.30;75.80
76168;DHT22;64927;48.214;16.378;2023-10-09T13:30:19;17.40;75.60
76168;DHT22;64927;48.214;16.378;2023-10-09T13:32:49;17.40;75.90
76168;DHT22;64927;48.214;16.378;2023-10-09T13:35:19;17.30;76.60
76168;DHT22;64927;48.214;16.378;2023-10-09T13:37:53;17.30;76.30
76168;DHT22;64927;48.214;16.378;2023-10-09T13:40:22;17.20;77.10
76168;DHT22;64927;48.214;16.378;2023-10-09T13:42:56;17.20;77.00
76168;DHT22;64927;48.214;16.378;2023-10-09T13:45:29;17.30;77.90
76168;DHT22;64927;48.214;16.378;2023-10-09T13:47:57;17.20;77.50
76168;DHT22;64927;48.214;16.378;2023-10-09T13:50:25;17.20;77.90
76168;DHT22;64927;48.214;16.378;2023-10-09T13:52:58;17.20;77.30
76168;DHT22;64927;48.214;16.378;2023-10-09T13:55:25;17.20;78.00
76168;DHT22;64927;48.214;16.378;2023-10-09T13:58:10;17.30;77.50
76168;DHT22;64927;48.214;16.378;2023-10-09T14:00:40;17.30;77.80
76168;DHT22;64927;48.214;16.378;2023-10-09T14:03:12;17.30;78.50
76168;DHT22;64927;48.214;16.378;2023-10-09T14:05:39;17.30;78.40
76168;DHT22;64927;48.214;16.378;2023-10-09T14:08:19;17.30;79.00
76168;DHT22;64927;48.214;16.378;2023-10-09T14:10:44;17.30;79.20
76168;DHT22;64927;48.214;16.378;2023-10-09T14:13:14;17.30;79.80
76168;DHT22;64927;48.214;16.378;2023-10-09T14:15:40;17.40;79.30
76168;DHT22;64927;48.214;16.378;2023-10-09T14:18:09;17.40;78.90
76168;DHT22;64927;48.214;16.378;2023-10-09T14:20:40;17.40;79.70
76168;DHT22;64927;48.214;16.378;2023-10-09T14:23:07;17.40;79.30
76168;DHT22;64927;48.214;16.378;2023-10-09T14:25:35;17.40;79.80
76168;DHT22;64927;48.214;16.378;2023-10-09T14:28:10;17.40;79.60
76168;DHT22;64927;48.214;16.378;2023-10-09T14:30:36;17.40;79.50
76168;DHT22;64927;48.214;16.378;2023-10-09T14:33:11;17.50;79.30
76168;DHT22;64927;48.214;16.378;2023-10-09T14:35:48;17.60;79.00
76168;DHT22;64927;48.214;16.378;2023-10-09T14:38:14;17.50;79.00
76168;DHT22;64927;48.214;16.378;2023-10-09T14:40:44;17.50;79.10
76168;DHT22;64927;48.214;16.378;2023-10-09T14:43:11;17.50;78.50
76168;DHT22;64927;48.214;16.378;2023-10-09T14:45:53;17.50;79.30
76168;DHT22;64927;48.214;16.378;2023-10-09T14:48:21;17.50;79.10
76168;DHT22;64927;48.214;16.378;2023-10-09T14:50:54;17.50;79.50
76168;DHT22;64927;48.214;16.378;2023-10-09T14:53:21;17.40;79.90
76168;DHT22;64927;48.214;16.378;2023-10-09T14:55:54;17.40;80.60
76168;DHT22;64927;48.214;16.378;2023-10-09T14:58:20;17.40;80.20
76168;DHT22;64927;48.214;16.378;2023-10-09T15:00:47;17.40;80.20
76168;DHT22;64927;48.214;16.378;2023-10-09T15:03:13;17.50;80.00
76168;DHT22;64927;48.214;16.378;2023-10-09T15:05:48;17.50;80.10
76168;DHT22;64927;48.214;16.378;2023-10-09T15:08:16;17.50;80.70
76168;DHT22;64927;48.214;16.378;2023-10-09T15:10:50;17.40;81.90
76168;DHT22;64927;48.214;16.378;2023-10-09T15:13:21;17.30;81.90
76168;DHT22;64927;48.214;16.378;2023-10-09T15:15:54;17.10;83.60
76168;DHT22;64927;48.214;16.378;2023-10-09T15:18:21;17.10;83.90
76168;DHT22;64927;48.214;16.378;2023-10-09T15:20:49;17.10;84.10
76168;DHT22;64927;48.214;16.378;2023-10-09T15:23:17;17.00;84.20
76168;DHT22;64927;48.214;16.378;2023-10-09T15:25:47;17.00;84.40
76168;DHT22;64927;48.214;16.378;2023-10-09T15:28:16;17.00;84.30
76168;DHT22;64927;48.214;16.378;2023-10-09T15:30:42;16.90;84.40
76168;DHT22;64927;48.214;16.378;2023-10-09T15:33:08;16.90;84.60
76168;DHT22;64927;48.214;16.378;2023-10-09T15:35:36;16.80;85.00
76168;DHT22;64927;48.214;16.378;2023-10-09T15:38:05;16.80;85.10
76168;DHT22;64927;48.214;16.378;2023-10-09T15:40:31;16.90;84.90
76168;DHT22;64927;48.214;16.378;2023-10-09T15:43:00;16.80;84.90
76168;DHT22;64927;48.214;16.378;2023-10-09T15:45:26;16.90;85.20
76168;DHT22;64927;48.214;16.378;2023-10-09T15:47:55;16.90;84.80
76168;DHT22;64927;48.214;16.378;2023-10-09T15:50:21;16.80;85.30
76168;DHT22;64927;48.214;16.378;2023-10-09T15:52:53;16.90;85.20
76168;DHT22;64927;48.214;16.378;2023-10-09T15:55:20;16.80;85.20
76168;DHT22;64927;48.214;16.378;2023-10-09T15:57:46;16.80;85.50
76168;DHT22;64927;48.214;16.378;2023-10-09T16:00:16;16.90;85.50
76168;DHT22;64927;48.214;16.378;2023-10-09T16:02:48;16.90;85.30
76168;DHT22;64927;48.214;16.378;2023-10-09T16:05:16;16.90;85.30